Time;durP1;ratioP1;P1;durP2;ratioP2;P2;SDS_P1;SDS_P2;PMS_P1;PMS_P2;Temp;Humidity;BMP_temperature;BMP_pressure;BME280_temperature;BME280_humidity;BME280_pressure;Samples;Min_cycle;Max_cycle;Signal;HPM_P1;HPM_P2
2021/06/06 05:10:33;;;;;;;2.28;0.90;;;23.10;69.10;;;;;;6258593;22;883477;-78
2021/06/06 05:12:59;;;;;;;1.98;0.65;;;23.30;69.00;;;;;;6224346;22;20056;-76
2021/06/06 05:15:25;;;;;;;2.45;0.85;;;23.30;69.00;;;;;;6177384;22;20092;-78
2021/06/06 05:17:51;;;;;;;3.58;1.05;;;23.30;69.10;;;;;;6229346;22;20007;-78
2021/06/06 05:20:18;;;;;;;3.40;1.00;;;23.20;69.10;;;;;;6203193;22;20015;-78
2021/06/06 05:22:44;;;;;;;3.40;0.90;;;23.20;69.20;;;;;;6229904;22;19999;-77
2021/06/06 05:25:10;;;;;;;2.90;0.80;;;23.20;69.30;;;;;;6231911;22;20010;-78
2021/06/06 05:27:35;;;;;;;2.40;0.73;;;23.20;69.30;;;;;;6228828;22;20419;-76
2021/06/06 05:30:03;;;;;;;2.30;0.88;;;23.20;69.40;;;;;;6229657;22;20092;-77
2021/06/06 05:32:29;;;;;;;4.43;0.90;;;23.20;69.40;;;;;;6229645;22;20627;-76
2021/06/06 05:34:54;;;;;;;2.97;1.05;;;23.20;69.40;;;;;;6225604;22;20011;-76
2021/06/06 05:37:20;;;;;;;2.45;0.90;;;23.10;69.40;;;;;;6230052;22;20007;-76
2021/06/06 05:39:45;;;;;;;2.65;0.93;;;23.10;69.30;;;;;;6231815;22;20083;-77
2021/06/06 05:42:11;;;;;;;5.22;0.80;;;23.10;69.40;;;;;;6219171;22;20031;-76
2021/06/06 05:44:37;;;;;;;3.95;0.98;;;23.10;69.50;;;;;;6227576;22;20331;-76
2021/06/06 05:47:03;;;;;;;2.30;0.65;;;23.10;69.60;;;;;;6202872;22;20074;-76
2021/06/06 05:50:48;;;;;;;4.90;1.00;;;23.10;69.30;;;;;;5056700;27;20431;-76
2021/06/06 05:53:14;;;;;;;3.97;0.75;;;23.10;69.70;;;;;;5040164;28;20032;-76
2021/06/06 05:55:42;;;;;;;2.28;0.90;;;23.10;69.80;;;;;;5023395;28;20375;-76
2021/06/06 05:58:08;;;;;;;2.80;0.93;;;23.10;69.80;;;;;;5040990;28;20096;-76
2021/06/06 06:00:36;;;;;;;2.15;0.85;;;23.10;69.80;;;;;;5042550;28;20041;-76
2021/06/06 06:03:03;;;;;;;3.40;0.90;;;23.10;69.80;;;;;;5041418;28;20139;-77
2021/06/06 06:05:29;;;;;;;3.88;0.98;;;23.10;69.70;;;;;;5043261;28;20494;-77
2021/06/06 06:07:54;;;;;;;2.63;1.13;;;23.10;69.70;;;;;;5042261;28;20059;-76
2021/06/06 06:10:24;;;;;;;3.53;0.93;;;23.10;69.60;;;;;;5040612;28;20422;-75
2021/06/06 06:12:50;;;;;;;2.90;1.08;;;23.10;69.60;;;;;;5040216;28;20036;-76
2021/06/06 06:15:16;;;;;;;3.08;0.80;;;23.10;69.60;;;;;;5041203;28;20384;-76
2021/06/06 06:17:42;;;;;;;7.65;1.17;;;23.10;69.60;;;;;;5040167;28;20052;-80
2021/06/06 06:20:10;;;;;;;5.20;0.90;;;23.10;69.70;;;;;;5040791;28;20032;-77
2021/06/06 06:22:35;;;;;;;9.90;1.50;;;23.10;69.80;;;;;;5034863;28;20486;-77
2021/06/06 06:25:01;;;;;;;2.80;1.30;;;23.20;69.60;;;;;;5035532;28;20093;-79
2021/06/06 06:27:27;;;;;;;6.25;0.90;;;23.20;69.40;;;;;;5031596;28;20753;-77
2021/06/06 06:29:53;;;;;;;5.63;1.52;;;23.20;69.40;;;;;;4926656;27;20073;-77
2021/06/06 06:32:18;;;;;;;6.63;0.88;;;23.20;69.60;;;;;;4954807;28;20057;-78
2021/06/06 06:34:44;;;;;;;3.88;0.90;;;23.20;69.30;;;;;;4972048;28;20029;-79
2021/06/06 06:37:10;;;;;;;4.03;1.00;;;23.20;69.20;;;;;;4980618;28;20510;-77
2021/06/06 06:39:37;;;;;;;5.20;1.05;;;23.20;69.20;;;;;;4966084;28;20112;-76
2021/06/06 06:42:03;;;;;;;2.90;0.80;;;23.30;69.40;;;;;;4967413;28;21746;-76
2021/06/06 06:44:28;;;;;;;5.75;1.05;;;23.30;69.40;;;;;;4986215;28;20034;-76
2021/06/06 06:48:31;;;;;;;3.72;1.08;;;23.30;68.70;;;;;;5022622;27;20863;-76
2021/06/06 06:50:57;;;;;;;3.50;0.88;;;23.30;69.10;;;;;;5016724;28;20040;-75
2021/06/06 06:53:23;;;;;;;6.78;1.17;;;23.30;69.10;;;;;;5013669;28;20028;-75
2021/06/06 06:55:51;;;;;;;8.15;1.30;;;23.30;68.40;;;;;;5010339;28;20036;-76
2021/06/06 06:58:16;;;;;;;7.47;1.30;;;23.30;68.50;;;;;;5010687;28;20450;-76
2021/06/06 07:00:44;;;;;;;5.57;0.90;;;23.30;68.70;;;;;;5031361;28;20024;-76
2021/06/06 07:03:11;;;;;;;5.00;1.00;;;23.30;69.00;;;;;;5018584;28;20056;-75
2021/06/06 07:05:37;;;;;;;4.72;0.90;;;23.30;68.80;;;;;;5031643;28;20020;-78
2021/06/06 07:08:07;;;;;;;3.47;1.30;;;23.30;69.20;;;;;;5001592;28;20399;-79
2021/06/06 07:10:34;;;;;;;6.97;1.40;;;23.30;69.30;;;;;;5015915;28;20017;-77
2021/06/06 07:12:59;;;;;;;6.45;1.73;;;23.40;69.40;;;;;;5002734;28;22469;-78
2021/06/06 07:15:25;;;;;;;7.05;1.40;;;23.40;69.30;;;;;;5016442;28;21680;-77
2021/06/06 07:17:51;;;;;;;3.95;0.98;;;23.30;69.40;;;;;;5019047;28;20029;-77
2021/06/06 07:20:19;;;;;;;6.22;1.23;;;23.40;69.20;;;;;;5011468;28;20032;-77
2021/06/06 07:22:45;;;;;;;4.80;1.13;;;23.40;69.30;;;;;;5008479;28;20127;-79
2021/06/06 07:25:12;;;;;;;7.50;1.60;;;23.40;69.40;;;;;;5017498;28;20029;-78
2021/06/06 07:27:40;;;;;;;6.40;0.95;;;23.40;69.20;;;;;;5015241;28;20098;-76
2021/06/06 07:30:07;;;;;;;6.97;1.33;;;23.40;69.00;;;;;;5014714;28;20021;-77
2021/06/06 07:32:33;;;;;;;6.03;1.23;;;23.40;69.10;;;;;;5008304;28;20064;-75
2021/06/06 07:35:02;;;;;;;6.88;1.35;;;23.40;69.20;;;;;;5016134;28;20144;-77
2021/06/06 07:37:28;;;;;;;3.53;0.90;;;23.40;69.40;;;;;;5012150;28;20045;-75
2021/06/06 07:39:53;;;;;;;5.65;1.27;;;23.40;69.20;;;;;;5028256;28;20036;-76
2021/06/06 07:42:19;;;;;;;5.68;1.02;;;23.40;69.20;;;;;;5016841;28;20657;-77
2021/06/06 07:44:45;;;;;;;5.72;1.20;;;23.40;69.20;;;;;;5016271;28;20024;-81
2021/06/06 07:47:11;;;;;;;4.70;1.27;;;23.40;69.30;;;;;;5032076;28;20061;-82
2021/06/06 08:00:58;;;;;;;8.27;1.40;;;23.40;68.60;;;;;;5064606;27;105298;-78
2021/06/06 08:03:30;;;;;;;5.45;1.30;;;23.50;68.50;;;;;;5040389;28;20054;-87
2021/06/06 08:05:57;;;;;;;8.02;1.27;;;23.50;68.80;;;;;;5014522;28;20105;-83
2021/06/06 08:08:23;;;;;;;8.80;1.40;;;23.40;69.10;;;;;;5042655;28;20952;-81
2021/06/06 08:10:51;;;;;;;6.10;1.48;;;23.40;69.00;;;;;;5056555;28;21135;-80
2021/06/06 08:13:16;;;;;;;6.38;1.58;;;23.40;69.00;;;;;;5037320;28;20062;-82
2021/06/06 08:15:42;;;;;;;8.32;2.75;;;23.40;69.00;;;;;;5063894;28;20114;-83
2021/06/06 08:18:09;;;;;;;8.85;2.50;;;23.30;69.10;;;;;;5059792;28;20032;-80
2021/06/06 08:21:02;;;;;;;10.45;3.63;;;23.30;69.20;;;;;;5061325;28;20032;-77
2021/06/06 08:23:27;;;;;;;17.30;8.10;;;23.30;69.70;;;;;;5048109;28;20047;-84
2021/06/06 08:25:54;;;;;;;13.77;7.30;;;23.30;69.90;;;;;;5060479;28;20494;-82
2021/06/06 08:28:20;;;;;;;18.95;9.45;;;23.30;70.10;;;;;;5040160;28;20028;-81
2021/06/06 08:30:52;;;;;;;21.85;8.48;;;23.30;70.60;;;;;;4999405;28;20035;-80
2021/06/06 08:33:19;;;;;;;21.75;8.27;;;23.30;70.60;;;;;;5039411;28;20479;-79
2021/06/06 08:35:45;;;;;;;23.13;9.02;;;23.40;71.10;;;;;;5017368;28;20127;-77
2021/06/06 08:38:11;;;;;;;19.45;7.97;;;23.40;71.10;;;;;;5035628;28;20119;-81
2021/06/06 08:41:05;;;;;;;18.55;6.80;;;23.40;71.10;;;;;;5030397;27;20146;-78
2021/06/06 08:44:08;;;;;;;18.33;7.22;;;23.40;70.70;;;;;;5029627;27;20039;-80
2021/06/06 08:46:46;;;;;;;18.38;7.30;;;23.40;70.90;;;;;;5012749;28;20054;-80
2021/06/06 08:49:12;;;;;;;14.10;6.20;;;23.40;70.70;;;;;;5026780;28;20071;-77
2021/06/06 08:51:43;;;;;;;17.85;8.07;;;23.30;70.70;;;;;;5036394;28;20479;-80
2021/06/06 08:54:20;;;;;;;19.52;8.00;;;23.30;71.00;;;;;;5059417;27;20355;-79
2021/06/06 08:56:46;;;;;;;19.83;6.90;;;23.30;71.60;;;;;;5052443;27;20042;-80
2021/06/06 08:59:19;;;;;;;16.67;6.65;;;23.30;71.30;;;;;;5018892;28;20798;-78
2021/06/06 09:01:57;;;;;;;17.67;6.65;;;23.30;71.40;;;;;;5004132;28;20397;-77
2021/06/06 09:04:26;;;;;;;14.85;6.40;;;23.30;71.10;;;;;;5010285;28;20097;-78
2021/06/06 09:06:54;;;;;;;14.35;6.20;;;23.30;71.10;;;;;;5003914;28;20032;-78
2021/06/06 09:09:26;;;;;;;13.65;5.90;;;23.30;71.20;;;;;;5035473;28;20047;-79
2021/06/06 09:11:52;;;;;;;14.40;6.68;;;23.30;71.10;;;;;;4988176;28;20622;-81
2021/06/06 09:14:18;;;;;;;20.00;6.20;;;23.30;71.20;;;;;;5021319;28;20031;-82
2021/06/06 09:16:59;;;;;;;17.30;6.45;;;23.30;71.10;;;;;;5016906;28;20715;-79
2021/06/06 09:19:25;;;;;;;19.50;5.70;;;23.30;70.80;;;;;;5007735;28;20427;-78
2021/06/06 09:24:12;;;;;;;12.77;5.40;;;23.30;70.20;;;;;;5053945;27;20401;-77
2021/06/06 09:26:38;;;;;;;15.93;5.80;;;23.30;70.60;;;;;;5030953;28;20024;-80
2021/06/06 09:29:23;;;;;;;12.88;5.35;;;23.20;70.50;;;;;;5029392;28;20039;-80
2021/06/06 09:31:49;;;;;;;12.90;5.50;;;23.20;70.40;;;;;;5017594;28;20075;-80
2021/06/06 09:34:20;;;;;;;11.77;5.50;;;23.20;70.40;;;;;;5018866;28;20107;-78
2021/06/06 09:37:10;;;;;;;10.80;5.40;;;23.20;70.30;;;;;;5014908;28;20044;-80
2021/06/06 09:39:45;;;;;;;14.63;5.63;;;23.20;70.30;;;;;;5010865;28;20024;-78
2021/06/06 09:42:34;;;;;;;14.18;5.40;;;23.20;70.30;;;;;;5011627;28;20102;-82
2021/06/06 09:45:08;;;;;;;13.63;5.00;;;23.20;70.30;;;;;;5007058;28;20040;-79
2021/06/06 09:47:34;;;;;;;;;;;23.20;70.30;;;;;;4998854;28;20029;-79
2021/06/06 09:50:32;;;;;;;11.55;5.07;;;23.20;70.30;;;;;;5001419;28;20295;-79
2021/06/06 09:53:12;;;;;;;13.13;4.88;;;23.10;70.30;;;;;;4998651;28;20527;-83
2021/06/06 09:55:38;;;;;;;18.10;5.55;;;23.20;70.30;;;;;;4988394;28;20025;-79
2021/06/06 09:58:27;;;;;;;13.43;5.50;;;23.10;70.40;;;;;;4998082;28;20033;-79
2021/06/06 10:00:54;;;;;;;16.23;5.18;;;23.20;70.50;;;;;;4997870;28;20029;-79
2021/06/06 10:03:26;;;;;;;14.18;5.25;;;23.20;70.50;;;;;;4997547;28;20051;-79
2021/06/06 10:05:53;;;;;;;11.38;4.30;;;23.10;70.50;;;;;;4996581;28;20442;-84
2021/06/06 10:08:23;;;;;;;13.38;4.85;;;23.20;70.80;;;;;;4983680;28;20090;-82
2021/06/06 10:10:51;;;;;;;12.15;4.90;;;23.20;70.60;;;;;;4993993;28;20021;-78
2021/06/06 10:13:29;;;;;;;12.45;4.93;;;23.20;70.60;;;;;;4985387;28;20384;-83
2021/06/06 10:16:00;;;;;;;12.10;5.35;;;23.20;70.60;;;;;;4998565;28;20404;-79
2021/06/06 10:18:31;;;;;;;11.20;4.68;;;23.20;70.60;;;;;;4984116;28;20151;-79
2021/06/06 10:21:11;;;;;;;11.75;5.32;;;23.20;70.60;;;;;;4970357;28;20033;-78
2021/06/06 10:23:44;;;;;;;11.13;4.78;;;23.20;70.60;;;;;;5006060;28;21695;-80
2021/06/06 10:26:31;;;;;;;11.70;5.00;;;23.20;70.70;;;;;;5009891;28;20025;-80
2021/06/06 10:29:01;;;;;;;10.95;4.45;;;23.20;70.70;;;;;;4979761;28;20091;-81
2021/06/06 10:31:29;;;;;;;8.95;4.47;;;23.20;70.60;;;;;;4995038;28;20144;-80
2021/06/06 10:34:11;;;;;;;11.38;5.30;;;23.20;70.80;;;;;;4997453;28;20130;-79
2021/06/06 10:36:37;;;;;;;10.10;4.55;;;23.20;70.70;;;;;;4971729;28;20033;-79
2021/06/06 10:39:23;;;;;;;9.38;4.90;;;23.20;70.80;;;;;;4984397;28;20107;-85
2021/06/06 10:42:09;;;;;;;10.20;5.25;;;23.20;70.80;;;;;;4986556;28;21815;-80
2021/06/06 10:44:54;;;;;;;10.80;4.53;;;23.20;70.80;;;;;;4976568;28;20029;-81
2021/06/06 10:47:43;;;;;;;13.05;5.45;;;23.20;70.60;;;;;;4988845;28;20087;-81
2021/06/06 10:50:16;;;;;;;9.05;4.63;;;23.20;70.50;;;;;;4983762;28;21468;-80
2021/06/06 10:52:42;;;;;;;11.38;4.82;;;23.10;70.40;;;;;;4982355;28;20029;-85
2021/06/06 10:55:45;;;;;;;14.15;4.50;;;23.20;70.50;;;;;;4980593;28;20036;-81
2021/06/06 10:58:16;;;;;;;11.18;5.10;;;23.20;70.50;;;;;;4992412;28;20528;-83
2021/06/06 11:00:53;;;;;;;11.05;5.13;;;23.20;70.50;;;;;;4985710;28;20084;-79
2021/06/06 11:03:27;;;;;;;8.98;4.78;;;23.10;70.50;;;;;;4984704;28;20076;-79
2021/06/06 11:05:54;;;;;;;11.02;4.50;;;23.10;70.50;;;;;;4986611;28;20029;-81
2021/06/06 11:08:31;;;;;;;10.90;4.07;;;23.10;70.60;;;;;;4975936;28;20062;-80
2021/06/06 11:11:24;;;;;;;8.85;4.43;;;23.10;70.70;;;;;;4987681;28;20029;-79
2021/06/06 11:13:57;;;;;;;9.40;4.82;;;23.10;70.70;;;;;;4978490;28;20112;-80
2021/06/06 11:16:37;;;;;;;10.07;4.80;;;23.10;70.70;;;;;;4965341;28;20064;-80
2021/06/06 11:19:10;;;;;;;18.05;5.18;;;23.20;70.70;;;;;;4985157;28;20468;-80
2021/06/06 11:21:37;;;;;;;11.27;4.27;;;23.20;70.80;;;;;;4980799;28;20028;-80
2021/06/06 11:24:23;;;;;;;14.57;4.65;;;23.20;70.70;;;;;;4997338;28;20033;-81
2021/06/06 11:27:15;;;;;;;8.30;3.97;;;23.20;70.10;;;;;;4982572;28;20026;-79
2021/06/06 11:29:57;;;;;;;13.07;4.60;;;23.20;70.50;;;;;;4984215;28;20033;-78
2021/06/06 11:32:56;;;;;;;18.52;5.40;;;23.20;70.90;;;;;;4995516;28;20676;-83
2021/06/06 11:35:34;;;;;;;9.18;4.07;;;23.20;70.80;;;;;;4960407;28;20045;-81
2021/06/06 11:38:20;;;;;;;13.07;4.30;;;23.20;70.70;;;;;;4983712;28;21113;-81
2021/06/06 11:40:47;;;;;;;11.23;4.65;;;23.20;70.70;;;;;;4998608;28;20170;-80
2021/06/06 11:43:31;;;;;;;9.98;4.15;;;23.20;70.60;;;;;;4966166;28;20068;-81
2021/06/06 11:46:12;;;;;;;16.95;4.53;;;23.20;70.60;;;;;;4982335;28;20359;-80
2021/06/06 11:48:44;;;;;;;17.33;4.68;;;23.20;70.60;;;;;;4984462;28;20021;-83
2021/06/06 11:51:16;;;;;;;11.73;4.60;;;23.20;70.60;;;;;;4983090;28;20036;-79
2021/06/06 11:53:42;;;;;;;11.43;4.53;;;23.10;70.70;;;;;;4973512;28;20830;-78
2021/06/06 11:56:13;;;;;;;15.65;5.45;;;23.20;70.60;;;;;;4983608;28;20099;-79
2021/06/06 11:58:45;;;;;;;12.95;5.13;;;23.10;70.50;;;;;;4983842;28;20613;-78
2021/06/06 12:01:18;;;;;;;12.45;5.55;;;23.20;70.60;;;;;;4994723;28;20120;-80
2021/06/06 12:03:46;;;;;;;13.90;5.27;;;23.10;70.70;;;;;;4980075;28;20052;-79
2021/06/06 12:06:25;;;;;;;10.88;4.70;;;23.10;70.60;;;;;;4979030;28;20025;-77
2021/06/06 12:08:56;;;;;;;13.10;4.63;;;23.10;71.30;;;;;;4979481;28;20160;-78
2021/06/06 12:11:27;;;;;;;12.70;4.70;;;23.20;71.10;;;;;;4982327;28;20060;-80
2021/06/06 12:14:06;;;;;;;9.95;3.67;;;23.20;71.20;;;;;;4965234;28;20033;-79
2021/06/06 12:16:32;;;;;;;12.73;3.67;;;23.20;71.10;;;;;;4964763;28;20116;-78
2021/06/06 12:19:12;;;;;;;10.07;4.72;;;23.20;70.80;;;;;;4968523;28;20424;-78
2021/06/06 12:21:42;;;;;;;10.50;3.95;;;23.20;70.90;;;;;;4978851;28;20389;-79
2021/06/06 12:24:10;;;;;;;10.20;4.30;;;23.20;70.90;;;;;;4995684;28;20033;-77
2021/06/06 12:26:39;;;;;;;16.08;4.55;;;23.20;71.10;;;;;;4985887;28;20041;-87
2021/06/06 12:29:05;;;;;;;12.82;4.40;;;23.20;71.50;;;;;;4964467;28;20247;-80
2021/06/06 12:31:38;;;;;;;14.45;4.93;;;23.30;71.50;;;;;;4934277;28;20729;-80
2021/06/06 12:34:30;;;;;;;13.10;4.60;;;23.40;71.50;;;;;;4973093;28;20044;-77
2021/06/06 12:37:03;;;;;;;9.77;4.13;;;23.40;71.70;;;;;;5004944;28;20033;-77
2021/06/06 12:39:29;;;;;;;22.20;4.78;;;23.40;71.20;;;;;;4969771;28;20049;-80
2021/06/06 12:47:50;;;;;;;13.45;4.88;;;25.40;66.90;;;;;;5081377;27;20379;-77
2021/06/06 12:50:16;;;;;;;7.78;3.75;;;24.90;67.20;;;;;;5078296;28;20040;-79
2021/06/06 12:52:53;;;;;;;12.13;3.70;;;24.40;68.10;;;;;;5044010;28;20139;-81
2021/06/06 12:55:38;;;;;;;10.60;4.28;;;24.20;69.60;;;;;;5044996;28;20043;-77
2021/06/06 12:58:29;;;;;;;13.25;4.13;;;23.90;70.00;;;;;;5039276;28;20024;-83
2021/06/06 13:01:12;;;;;;;10.38;3.80;;;23.90;70.90;;;;;;5019206;28;20991;-80
2021/06/06 13:03:46;;;;;;;8.68;4.20;;;23.80;70.70;;;;;;4999099;28;20024;-80
2021/06/06 13:06:17;;;;;;;10.57;4.00;;;23.80;70.80;;;;;;5015341;28;20029;-80
2021/06/06 13:08:43;;;;;;;10.00;4.15;;;23.80;71.40;;;;;;4998082;28;21723;-81
2021/06/06 13:11:12;;;;;;;12.13;4.20;;;23.80;71.30;;;;;;4997909;28;21189;-81
2021/06/06 13:13:49;;;;;;;13.40;4.32;;;23.80;71.30;;;;;;5055715;27;20943;-80
2021/06/06 13:16:37;;;;;;;15.52;5.13;;;23.70;71.00;;;;;;5017999;28;20663;-78
2021/06/06 13:19:06;;;;;;;9.65;3.95;;;23.70;71.10;;;;;;5044183;27;21027;-80
2021/06/06 13:21:46;;;;;;;10.95;3.63;;;23.70;71.10;;;;;;5045546;27;20679;-79
2021/06/06 13:24:44;;;;;;;10.43;3.88;;;23.70;70.90;;;;;;5034368;27;21615;-78
2021/06/06 13:27:27;;;;;;;8.45;3.60;;;23.80;71.40;;;;;;4993592;28;20028;-78
2021/06/06 13:29:56;;;;;;;11.88;3.90;;;23.80;71.30;;;;;;4990499;28;20063;-80
2021/06/06 13:32:28;;;;;;;8.98;3.45;;;23.70;71.10;;;;;;4979209;28;20210;-76
2021/06/06 13:34:55;;;;;;;10.57;4.07;;;23.70;71.40;;;;;;4990342;28;20115;-77
2021/06/06 13:37:22;;;;;;;8.77;3.45;;;23.70;71.80;;;;;;4970645;28;20017;-77
2021/06/06 13:39:50;;;;;;;8.23;3.50;;;23.80;71.90;;;;;;5002311;28;20024;-82
2021/06/06 13:42:16;;;;;;;12.80;3.92;;;23.80;71.50;;;;;;4982725;28;20048;-78
2021/06/06 13:45:54;;;;;;;9.23;3.50;;;23.70;70.90;;;;;;5042975;27;20420;-82
2021/06/06 13:48:23;;;;;;;9.23;3.35;;;23.70;71.60;;;;;;5003798;28;20031;-79
2021/06/06 13:50:49;;;;;;;9.25;3.20;;;23.80;71.70;;;;;;5016340;28;20076;-87
2021/06/06 13:53:27;;;;;;;9.20;3.35;;;23.80;71.60;;;;;;5034583;28;20022;-80
2021/06/06 13:55:54;;;;;;;9.50;3.70;;;23.80;71.50;;;;;;5020561;28;20360;-87
2021/06/06 13:58:20;;;;;;;7.78;3.70;;;23.80;71.40;;;;;;5023294;28;20122;-85
2021/06/06 14:00:46;;;;;;;15.48;3.92;;;23.80;71.40;;;;;;5020708;28;20577;-88
2021/06/06 14:03:13;;;;;;;8.38;3.13;;;23.80;71.60;;;;;;5004943;28;20036;-84
2021/06/06 14:05:39;;;;;;;12.00;3.42;;;23.80;71.50;;;;;;5016478;28;20027;-76
2021/06/06 14:08:05;;;;;;;9.85;3.38;;;23.80;71.60;;;;;;5032506;28;20026;-77
2021/06/06 14:10:39;;;;;;;9.23;3.10;;;23.80;71.40;;;;;;5025502;28;20119;-79
2021/06/06 14:13:35;;;;;;;9.15;3.08;;;23.80;70.90;;;;;;5036721;27;20379;-82
2021/06/06 14:16:25;;;;;;;6.47;3.30;;;23.80;71.30;;;;;;4996678;28;20032;-84
2021/06/06 14:18:52;;;;;;;7.93;3.50;;;23.80;71.70;;;;;;5024035;28;21355;-79
2021/06/06 14:21:19;;;;;;;11.13;3.05;;;23.80;71.20;;;;;;4980376;28;21434;-82
2021/06/06 14:23:45;;;;;;;8.70;3.83;;;23.80;71.50;;;;;;4996946;28;20047;-80
2021/06/06 14:26:11;;;;;;;9.05;2.95;;;23.80;71.20;;;;;;4998537;28;20024;-80
2021/06/06 14:28:36;;;;;;;7.95;3.05;;;23.80;71.40;;;;;;4988126;28;20033;-82
2021/06/06 14:31:02;;;;;;;8.75;3.10;;;23.80;71.20;;;;;;4997199;28;20032;-82
2021/06/06 14:33:28;;;;;;;12.88;3.80;;;23.80;71.10;;;;;;4997072;28;20045;-81
2021/06/06 14:36:00;;;;;;;9.88;3.60;;;23.80;71.20;;;;;;4998114;28;20140;-82
2021/06/06 14:38:25;;;;;;;7.95;3.28;;;23.90;71.00;;;;;;4998814;28;20040;-78
2021/06/06 14:40:51;;;;;;;7.03;2.85;;;23.80;71.10;;;;;;4998142;28;20025;-78
2021/06/06 14:43:18;;;;;;;10.25;3.13;;;23.80;71.20;;;;;;4998122;28;20112;-80
2021/06/06 14:45:44;;;;;;;9.77;3.33;;;23.80;71.10;;;;;;4997864;28;20033;-79
2021/06/06 14:49:32;;;;;;;9.82;3.00;;;23.90;70.90;;;;;;5056796;27;20831;-78
2021/06/06 14:51:58;;;;;;;6.88;3.05;;;23.90;71.50;;;;;;5022625;28;20042;-77
2021/06/06 14:54:23;;;;;;;6.35;3.28;;;23.80;71.20;;;;;;5031799;28;20035;-78
2021/06/06 14:56:49;;;;;;;12.98;3.05;;;23.80;71.30;;;;;;5018328;28;21107;-76
2021/06/06 14:59:15;;;;;;;9.93;3.55;;;23.90;72.40;;;;;;5017940;28;20091;-79
2021/06/06 15:01:41;;;;;;;7.28;2.78;;;23.90;72.40;;;;;;5017228;28;20263;-78
2021/06/06 15:04:07;;;;;;;10.05;3.70;;;23.90;71.60;;;;;;5000910;28;21757;-78
2021/06/06 15:06:33;;;;;;;6.60;3.13;;;23.90;71.20;;;;;;5016892;28;21047;-77
2021/06/06 15:08:59;;;;;;;8.90;3.20;;;23.90;71.50;;;;;;5015083;28;21006;-76
2021/06/06 15:11:25;;;;;;;9.35;3.00;;;23.80;71.30;;;;;;5003033;28;20115;-77
2021/06/06 15:13:52;;;;;;;7.35;2.70;;;23.80;71.50;;;;;;5011149;28;20112;-79
2021/06/06 15:16:19;;;;;;;7.32;2.78;;;23.80;71.50;;;;;;5013311;28;20021;-77
2021/06/06 15:18:45;;;;;;;9.25;3.25;;;23.80;71.90;;;;;;4998490;28;20040;-79
2021/06/06 15:21:16;;;;;;;9.73;3.20;;;23.80;72.50;;;;;;4997185;28;20064;-86
2021/06/06 15:23:42;;;;;;;10.93;3.08;;;23.80;71.10;;;;;;5007604;28;20060;-80
2021/06/06 15:26:08;;;;;;;6.60;2.67;;;23.80;71.40;;;;;;5008109;28;20039;-78
2021/06/06 15:28:37;;;;;;;11.20;3.40;;;23.90;71.20;;;;;;4976071;28;20040;-83
2021/06/06 15:31:03;;;;;;;9.32;2.97;;;23.90;71.10;;;;;;5000792;28;20028;-79
2021/06/06 15:35:30;;;;;;;5.72;2.78;;;23.90;70.80;;;;;;5053929;27;20383;-77
2021/06/06 15:37:56;;;;;;;6.03;2.88;;;23.90;71.30;;;;;;5041387;28;20030;-80
2021/06/06 15:40:25;;;;;;;7.95;3.03;;;23.90;71.20;;;;;;5027344;28;20055;-81
2021/06/06 15:43:59;;;;;;;10.27;2.70;;;23.90;70.90;;;;;;5051728;27;20371;-78
2021/06/06 15:46:27;;;;;;;7.07;2.80;;;23.90;71.30;;;;;;5038203;28;20074;-80
2021/06/06 15:48:53;;;;;;;10.52;3.20;;;23.90;71.90;;;;;;5041592;28;20028;-78
2021/06/06 15:51:37;;;;;;;11.30;3.00;;;23.90;71.70;;;;;;5037965;28;20024;-79
2021/06/06 15:54:03;;;;;;;8.80;3.45;;;23.90;71.40;;;;;;5021998;28;20035;-88
2021/06/06 15:56:29;;;;;;;10.15;3.33;;;23.90;71.40;;;;;;4998824;28;20032;-79
2021/06/06 15:58:55;;;;;;;7.97;2.38;;;23.90;71.10;;;;;;5029713;28;20052;-78
2021/06/06 16:01:21;;;;;;;6.25;2.60;;;23.90;71.40;;;;;;5054655;28;20035;-79
2021/06/06 16:03:46;;;;;;;6.18;2.80;;;23.90;71.30;;;;;;5036607;28;20577;-77
2021/06/06 16:06:13;;;;;;;9.35;2.90;;;23.90;71.20;;;;;;5060758;28;20576;-78
2021/06/06 16:08:39;;;;;;;5.72;2.72;;;24.00;71.00;;;;;;5053448;28;20032;-78
2021/06/06 16:11:06;;;;;;;8.18;3.03;;;24.00;71.30;;;;;;5015848;28;20036;-78
2021/06/06 16:13:32;;;;;;;13.40;3.47;;;24.00;71.40;;;;;;5029661;28;20053;-77
2021/06/06 16:15:57;;;;;;;6.57;2.78;;;24.00;71.60;;;;;;5030117;28;20160;-78
2021/06/06 16:18:23;;;;;;;7.85;2.42;;;24.00;71.70;;;;;;5028060;28;20016;-78
2021/06/06 16:20:49;;;;;;;7.38;2.58;;;24.00;70.50;;;;;;5027648;28;20511;-83
2021/06/06 16:23:15;;;;;;;12.15;2.45;;;24.00;69.90;;;;;;5018405;28;21720;-79
2021/06/06 16:25:40;;;;;;;5.90;2.55;;;23.90;69.80;;;;;;5024170;28;20028;-81
2021/06/06 16:28:06;;;;;;;6.22;2.83;;;23.90;69.50;;;;;;5021423;28;20100;-80
2021/06/06 16:30:32;;;;;;;7.15;2.65;;;23.90;69.70;;;;;;4990554;28;20022;-79
2021/06/06 16:32:59;;;;;;;6.22;2.55;;;24.00;70.40;;;;;;5014433;28;20030;-76
2021/06/06 16:36:58;;;;;;;7.20;2.58;;;24.00;70.40;;;;;;5060691;27;21115;-77
2021/06/06 16:39:23;;;;;;;7.75;2.35;;;23.90;70.60;;;;;;5026599;28;20634;-79
2021/06/06 16:41:49;;;;;;;10.20;2.45;;;23.90;70.50;;;;;;5035835;28;20032;-78
2021/06/06 16:44:14;;;;;;;7.18;2.70;;;23.80;71.00;;;;;;5033666;28;20978;-78
2021/06/06 16:46:40;;;;;;;9.63;2.20;;;23.90;71.00;;;;;;5016742;27;20725;-76
2021/06/06 16:49:06;;;;;;;7.60;3.00;;;23.80;70.80;;;;;;4986025;28;20091;-75
2021/06/06 16:51:32;;;;;;;8.15;2.78;;;23.80;70.80;;;;;;4990958;28;20037;-76
2021/06/06 16:53:58;;;;;;;7.68;2.40;;;23.80;70.70;;;;;;5003932;28;20049;-77
2021/06/06 16:56:23;;;;;;;7.30;2.60;;;23.80;70.70;;;;;;4994481;28;21717;-75
2021/06/06 17:00:11;;;;;;;6.25;2.28;;;23.80;70.30;;;;;;5066787;27;20563;-76
2021/06/06 17:02:37;;;;;;;11.77;2.55;;;23.80;70.70;;;;;;5028094;28;20024;-78
2021/06/06 17:05:03;;;;;;;5.13;2.30;;;23.70;70.70;;;;;;5029517;28;20839;-77
2021/06/06 17:08:15;;;;;;;7.90;2.75;;;23.70;70.30;;;;;;5060776;27;20426;-76
2021/06/06 17:10:41;;;;;;;7.45;2.22;;;23.70;70.80;;;;;;5048698;28;20024;-76
2021/06/06 17:13:10;;;;;;;9.23;2.85;;;23.70;70.80;;;;;;5056739;28;20380;-82
2021/06/06 17:15:41;;;;;;;5.10;2.28;;;23.70;70.70;;;;;;5058016;28;20028;-77
2021/06/06 17:18:07;;;;;;;9.35;2.72;;;23.70;70.80;;;;;;5053397;28;20718;-82
2021/06/06 17:20:33;;;;;;;13.30;2.38;;;23.70;70.90;;;;;;5046226;28;20023;-77
2021/06/06 17:22:58;;;;;;;8.35;2.50;;;23.70;70.80;;;;;;5041751;28;20040;-78
2021/06/06 17:25:27;;;;;;;7.55;2.25;;;23.80;70.90;;;;;;5053649;28;21034;-78
2021/06/06 17:27:53;;;;;;;8.82;2.72;;;23.70;71.00;;;;;;5051025;28;20044;-79
2021/06/06 17:30:20;;;;;;;7.47;2.60;;;23.70;70.90;;;;;;5053692;28;20544;-78
2021/06/06 17:32:46;;;;;;;8.65;2.13;;;23.70;71.00;;;;;;5034039;28;21283;-87
2021/06/06 17:35:13;;;;;;;5.75;2.47;;;23.70;71.20;;;;;;5051315;28;21210;-77
2021/06/06 17:37:39;;;;;;;6.40;2.50;;;23.70;70.80;;;;;;5047729;28;21801;-77
2021/06/06 17:40:08;;;;;;;8.98;2.03;;;23.70;69.90;;;;;;5050195;28;21193;-83
2021/06/06 17:42:35;;;;;;;8.18;2.30;;;23.70;70.20;;;;;;5053701;28;20100;-79
2021/06/06 17:45:05;;;;;;;5.97;2.47;;;23.70;70.90;;;;;;5048102;28;20031;-77
2021/06/06 17:47:31;;;;;;;6.00;2.25;;;23.70;70.50;;;;;;5048863;28;20068;-75
2021/06/06 17:49:57;;;;;;;7.97;2.58;;;23.70;70.60;;;;;;5047671;28;20083;-79
2021/06/06 17:52:22;;;;;;;6.45;2.53;;;23.70;70.70;;;;;;5050379;28;20453;-77
2021/06/06 17:54:50;;;;;;;7.65;2.40;;;23.70;70.80;;;;;;5049885;28;20028;-80
2021/06/06 17:57:16;;;;;;;9.52;2.75;;;23.70;70.90;;;;;;5052659;28;20701;-77
2021/06/06 17:59:42;;;;;;;6.85;1.83;;;23.70;71.00;;;;;;5074644;27;20126;-82
2021/06/06 18:02:08;;;;;;;9.13;2.38;;;23.80;70.90;;;;;;5038439;28;20154;-77
2021/06/06 18:04:33;;;;;;;7.30;2.72;;;23.70;70.70;;;;;;5035025;28;20040;-81
2021/06/06 18:06:59;;;;;;;6.57;2.05;;;23.80;70.70;;;;;;5047139;28;20055;-78
2021/06/06 18:09:25;;;;;;;4.97;2.22;;;23.70;70.70;;;;;;5038275;28;20054;-78
2021/06/06 18:11:51;;;;;;;10.23;2.13;;;23.70;70.70;;;;;;5035304;28;20035;-77
2021/06/06 18:14:17;;;;;;;4.93;1.73;;;23.70;70.60;;;;;;5033338;28;20455;-77
2021/06/06 18:16:42;;;;;;;5.18;1.88;;;23.70;70.60;;;;;;5050047;28;20024;-77
2021/06/06 18:19:08;;;;;;;7.15;2.55;;;23.70;70.50;;;;;;5036292;28;20028;-77
2021/06/06 18:21:38;;;;;;;6.82;2.10;;;23.70;70.60;;;;;;5016977;28;20028;-79
2021/06/06 18:24:04;;;;;;;5.25;2.08;;;23.70;71.30;;;;;;5009057;28;21581;-78
2021/06/06 18:26:30;;;;;;;7.65;1.90;;;23.80;70.70;;;;;;5029172;28;20092;-78
2021/06/06 18:28:56;;;;;;;8.00;2.22;;;23.70;70.60;;;;;;5040139;28;20438;-77
2021/06/06 18:31:22;;;;;;;5.15;1.98;;;23.70;70.60;;;;;;5033167;28;20126;-78
2021/06/06 18:33:50;;;;;;;5.97;2.28;;;23.70;70.60;;;;;;5020189;28;20056;-77
2021/06/06 18:36:16;;;;;;;4.65;2.05;;;23.70;70.70;;;;;;5037290;28;20801;-78
2021/06/06 18:38:42;;;;;;;4.65;2.00;;;23.70;70.60;;;;;;5033827;28;20970;-78